sensor_id;sensor_type;location;lat;lon;timestamp;P1;durP1;ratioP1;P2;durP2;ratioP2
12623;SDS011;6377;42.836;23.998;2023-06-10T00:01:44;5.80;;;3.50;;
12623;SDS011;6377;42.836;23.998;2023-06-10T00:04:13;4.53;;;3.77;;
12623;SDS011;6377;42.836;23.998;2023-06-10T00:06:40;5.63;;;3.50;;
12623;SDS011;6377;42.836;23.998;2023-06-10T00:09:09;4.63;;;3.57;;
12623;SDS011;6377;42.836;23.998;2023-06-10T00:11:36;4.43;;;3.60;;
12623;SDS011;6377;42.836;23.998;2023-06-10T00:14:04;6.70;;;3.73;;
12623;SDS011;6377;42.836;23.998;2023-06-10T00:16:31;5.97;;;3.87;;
12623;SDS011;6377;42.836;23.998;2023-06-10T00:19:00;6.70;;;4.13;;
12623;SDS011;6377;42.836;23.998;2023-06-10T00:21:29;6.93;;;4.57;;
12623;SDS011;6377;42.836;23.998;2023-06-10T00:24:02;7.07;;;3.80;;
12623;SDS011;6377;42.836;23.998;2023-06-10T00:26:30;4.67;;;4.10;;
12623;SDS011;6377;42.836;23.998;2023-06-10T00:28:58;6.17;;;3.80;;
12623;SDS011;6377;42.836;23.998;2023-06-10T00:31:26;4.70;;;4.13;;
12623;SDS011;6377;42.836;23.998;2023-06-10T00:33:53;5.93;;;3.80;;
12623;SDS011;6377;42.836;23.998;2023-06-10T00:36:22;7.17;;;3.80;;
12623;SDS011;6377;42.836;23.998;2023-06-10T00:38:49;5.43;;;3.93;;
12623;SDS011;6377;42.836;23.998;2023-06-10T00:41:16;5.53;;;4.03;;
12623;SDS011;6377;42.836;23.998;2023-06-10T00:43:44;4.13;;;3.70;;
12623;SDS011;6377;42.836;23.998;2023-06-10T00:46:11;3.83;;;3.43;;
12623;SDS011;6377;42.836;23.998;2023-06-10T00:48:40;5.63;;;3.63;;
12623;SDS011;6377;42.836;23.998;2023-06-10T00:51:09;4.17;;;3.30;;
12623;SDS011;6377;42.836;23.998;2023-06-10T00:53:39;4.97;;;3.87;;
12623;SDS011;6377;42.836;23.998;2023-06-10T00:56:06;5.20;;;3.27;;
12623;SDS011;6377;42.836;23.998;2023-06-10T00:58:34;4.57;;;3.20;;
12623;SDS011;6377;42.836;23.998;2023-06-10T01:01:02;4.83;;;3.80;;
12623;SDS011;6377;42.836;23.998;2023-06-10T01:03:30;6.40;;;3.70;;
12623;SDS011;6377;42.836;23.998;2023-06-10T01:06:03;4.13;;;3.10;;
12623;SDS011;6377;42.836;23.998;2023-06-10T01:08:39;5.87;;;3.43;;
12623;SDS011;6377;42.836;23.998;2023-06-10T01:11:14;5.03;;;3.57;;
12623;SDS011;6377;42.836;23.998;2023-06-10T01:13:47;3.93;;;3.37;;
12623;SDS011;6377;42.836;23.998;2023-06-10T01:16:17;4.43;;;3.60;;
12623;SDS011;6377;42.836;23.998;2023-06-10T01:18:46;5.70;;;3.43;;
12623;SDS011;6377;42.836;23.998;2023-06-10T01:21:17;5.57;;;3.60;;
12623;SDS011;6377;42.836;23.998;2023-06-10T01:23:50;8.53;;;3.83;;
12623;SDS011;6377;42.836;23.998;2023-06-10T01:26:19;6.57;;;3.80;;
12623;SDS011;6377;42.836;23.998;2023-06-10T01:28:54;6.70;;;3.70;;
12623;SDS011;6377;42.836;23.998;2023-06-10T01:31:30;4.03;;;3.40;;
12623;SDS011;6377;42.836;23.998;2023-06-10T01:34:03;5.77;;;3.43;;
12623;SDS011;6377;42.836;23.998;2023-06-10T01:36:36;4.57;;;3.37;;
12623;SDS011;6377;42.836;23.998;2023-06-10T01:39:07;6.20;;;3.53;;
12623;SDS011;6377;42.836;23.998;2023-06-10T01:41:37;4.13;;;3.30;;
12623;SDS011;6377;42.836;23.998;2023-06-10T01:44:05;5.27;;;3.50;;
12623;SDS011;6377;42.836;23.998;2023-06-10T01:46:33;4.27;;;3.27;;
12623;SDS011;6377;42.836;23.998;2023-06-10T01:49:00;3.57;;;3.20;;
12623;SDS011;6377;42.836;23.998;2023-06-10T01:51:27;3.83;;;3.10;;
12623;SDS011;6377;42.836;23.998;2023-06-10T01:53:58;3.70;;;3.30;;
12623;SDS011;6377;42.836;23.998;2023-06-10T01:56:25;3.80;;;3.40;;
12623;SDS011;6377;42.836;23.998;2023-06-10T01:58:52;3.47;;;3.17;;
12623;SDS011;6377;42.836;23.998;2023-06-10T02:01:24;4.40;;;3.43;;
12623;SDS011;6377;42.836;23.998;2023-06-10T02:03:51;4.70;;;3.43;;
12623;SDS011;6377;42.836;23.998;2023-06-10T02:06:18;3.93;;;3.53;;
12623;SDS011;6377;42.836;23.998;2023-06-10T02:08:46;4.33;;;3.57;;
12623;SDS011;6377;42.836;23.998;2023-06-10T02:11:14;4.30;;;3.10;;
12623;SDS011;6377;42.836;23.998;2023-06-10T02:13:42;3.40;;;3.10;;
12623;SDS011;6377;42.836;23.998;2023-06-10T02:16:09;4.50;;;3.43;;
12623;SDS011;6377;42.836;23.998;2023-06-10T02:18:38;5.30;;;3.73;;
12623;SDS011;6377;42.836;23.998;2023-06-10T02:21:06;4.37;;;3.60;;
12623;SDS011;6377;42.836;23.998;2023-06-10T02:23:33;4.97;;;3.50;;
12623;SDS011;6377;42.836;23.998;2023-06-10T02:26:00;4.87;;;3.80;;
12623;SDS011;6377;42.836;23.998;2023-06-10T02:28:30;6.77;;;3.57;;
12623;SDS011;6377;42.836;23.998;2023-06-10T02:30:57;5.87;;;3.37;;
12623;SDS011;6377;42.836;23.998;2023-06-10T02:33:25;4.87;;;3.60;;
12623;SDS011;6377;42.836;23.998;2023-06-10T02:35:53;4.10;;;3.53;;
12623;SDS011;6377;42.836;23.998;2023-06-10T02:38:21;4.93;;;3.90;;
12623;SDS011;6377;42.836;23.998;2023-06-10T02:40:48;4.17;;;3.53;;
12623;SDS011;6377;42.836;23.998;2023-06-10T02:43:16;4.60;;;3.80;;
12623;SDS011;6377;42.836;23.998;2023-06-10T02:45:44;4.80;;;3.90;;
12623;SDS011;6377;42.836;23.998;2023-06-10T02:48:12;5.03;;;3.60;;
12623;SDS011;6377;42.836;23.998;2023-06-10T02:50:39;6.27;;;3.80;;
12623;SDS011;6377;42.836;23.998;2023-06-10T02:53:07;4.07;;;3.57;;
12623;SDS011;6377;42.836;23.998;2023-06-10T02:55:34;5.80;;;4.17;;
12623;SDS011;6377;42.836;23.998;2023-06-10T02:58:02;8.07;;;3.90;;
12623;SDS011;6377;42.836;23.998;2023-06-10T03:00:30;5.10;;;3.73;;
12623;SDS011;6377;42.836;23.998;2023-06-10T03:02:59;5.17;;;3.80;;
12623;SDS011;6377;42.836;23.998;2023-06-10T03:05:28;4.73;;;3.67;;
12623;SDS011;6377;42.836;23.998;2023-06-10T03:07:55;5.43;;;3.93;;
12623;SDS011;6377;42.836;23.998;2023-06-10T03:10:23;4.57;;;3.83;;
12623;SDS011;6377;42.836;23.998;2023-06-10T03:12:50;3.83;;;3.40;;
12623;SDS011;6377;42.836;23.998;2023-06-10T03:15:17;6.57;;;3.30;;
12623;SDS011;6377;42.836;23.998;2023-06-10T03:17:46;4.80;;;3.70;;
12623;SDS011;6377;42.836;23.998;2023-06-10T03:20:14;4.60;;;3.23;;
12623;SDS011;6377;42.836;23.998;2023-06-10T03:22:42;3.97;;;3.50;;
12623;SDS011;6377;42.836;23.998;2023-06-10T03:25:09;3.90;;;3.40;;
12623;SDS011;6377;42.836;23.998;2023-06-10T03:27:39;6.10;;;3.47;;
12623;SDS011;6377;42.836;23.998;2023-06-10T03:30:06;4.53;;;3.70;;
12623;SDS011;6377;42.836;23.998;2023-06-10T03:32:34;6.10;;;3.33;;
12623;SDS011;6377;42.836;23.998;2023-06-10T03:35:02;4.53;;;3.70;;
12623;SDS011;6377;42.836;23.998;2023-06-10T03:37:31;5.63;;;3.70;;
12623;SDS011;6377;42.836;23.998;2023-06-10T03:39:58;4.47;;;3.50;;
12623;SDS011;6377;42.836;23.998;2023-06-10T03:42:25;6.83;;;4.17;;
12623;SDS011;6377;42.836;23.998;2023-06-10T03:44:52;4.73;;;4.00;;
12623;SDS011;6377;42.836;23.998;2023-06-10T03:47:20;5.03;;;3.87;;
12623;SDS011;6377;42.836;23.998;2023-06-10T03:49:47;5.40;;;3.77;;
12623;SDS011;6377;42.836;23.998;2023-06-10T03:52:14;5.30;;;4.20;;
12623;SDS011;6377;42.836;23.998;2023-06-10T03:54:45;5.87;;;3.73;;
12623;SDS011;6377;42.836;23.998;2023-06-10T03:57:12;3.87;;;3.40;;
12623;SDS011;6377;42.836;23.998;2023-06-10T03:59:39;4.30;;;3.73;;
12623;SDS011;6377;42.836;23.998;2023-06-10T04:02:07;5.97;;;3.90;;
12623;SDS011;6377;42.836;23.998;2023-06-10T04:04:34;4.60;;;3.70;;
12623;SDS011;6377;42.836;23.998;2023-06-10T04:07:02;4.53;;;3.63;;
12623;SDS011;6377;42.836;23.998;2023-06-10T04:09:30;3.93;;;3.47;;
12623;SDS011;6377;42.836;23.998;2023-06-10T04:11:59;4.10;;;3.63;;
12623;SDS011;6377;42.836;23.998;2023-06-10T04:14:26;4.70;;;3.70;;
12623;SDS011;6377;42.836;23.998;2023-06-10T04:16:54;4.90;;;3.90;;
12623;SDS011;6377;42.836;23.998;2023-06-10T04:19:21;4.57;;;3.90;;
12623;SDS011;6377;42.836;23.998;2023-06-10T04:22:00;5.23;;;3.93;;
12623;SDS011;6377;42.836;23.998;2023-06-10T04:24:27;9.30;;;4.03;;
12623;SDS011;6377;42.836;23.998;2023-06-10T04:26:54;6.73;;;4.10;;
12623;SDS011;6377;42.836;23.998;2023-06-10T04:29:23;4.93;;;4.10;;
12623;SDS011;6377;42.836;23.998;2023-06-10T04:31:50;5.60;;;4.03;;
12623;SDS011;6377;42.836;23.998;2023-06-10T04:34:17;6.60;;;4.33;;
12623;SDS011;6377;42.836;23.998;2023-06-10T04:36:45;6.73;;;4.10;;
12623;SDS011;6377;42.836;23.998;2023-06-10T04:39:12;5.50;;;4.20;;
12623;SDS011;6377;42.836;23.998;2023-06-10T04:41:41;4.60;;;4.20;;
12623;SDS011;6377;42.836;23.998;2023-06-10T04:44:09;4.70;;;3.77;;
12623;SDS011;6377;42.836;23.998;2023-06-10T04:46:38;4.83;;;4.33;;
12623;SDS011;6377;42.836;23.998;2023-06-10T04:49:05;6.17;;;4.37;;
12623;SDS011;6377;42.836;23.998;2023-06-10T04:51:33;5.38;;;4.47;;
12623;SDS011;6377;42.836;23.998;2023-06-10T04:54:00;5.23;;;4.27;;
12623;SDS011;6377;42.836;23.998;2023-06-10T04:56:29;5.93;;;4.17;;
12623;SDS011;6377;42.836;23.998;2023-06-10T04:58:56;7.97;;;4.40;;
12623;SDS011;6377;42.836;23.998;2023-06-10T05:01:23;4.83;;;4.33;;
12623;SDS011;6377;42.836;23.998;2023-06-10T05:03:52;6.27;;;4.43;;
12623;SDS011;6377;42.836;23.998;2023-06-10T05:06:19;4.67;;;3.90;;
12623;SDS011;6377;42.836;23.998;2023-06-10T05:08:47;5.93;;;3.90;;
12623;SDS011;6377;42.836;23.998;2023-06-10T05:11:14;7.40;;;4.45;;
12623;SDS011;6377;42.836;23.998;2023-06-10T05:13:41;5.83;;;4.20;;
12623;SDS011;6377;42.836;23.998;2023-06-10T05:16:09;6.32;;;4.35;;
12623;SDS011;6377;42.836;23.998;2023-06-10T05:18:36;5.83;;;4.30;;
12623;SDS011;6377;42.836;23.998;2023-06-10T05:21:05;5.97;;;4.40;;
12623;SDS011;6377;42.836;23.998;2023-06-10T05:23:32;5.57;;;4.50;;
12623;SDS011;6377;42.836;23.998;2023-06-10T05:25:59;6.67;;;4.57;;
12623;SDS011;6377;42.836;23.998;2023-06-10T05:28:27;7.20;;;5.27;;
12623;SDS011;6377;42.836;23.998;2023-06-10T05:30:54;6.73;;;5.50;;
12623;SDS011;6377;42.836;23.998;2023-06-10T05:33:21;6.90;;;5.63;;
12623;SDS011;6377;42.836;23.998;2023-06-10T05:35:48;5.77;;;5.17;;
12623;SDS011;6377;42.836;23.998;2023-06-10T05:38:17;5.37;;;4.87;;
12623;SDS011;6377;42.836;23.998;2023-06-10T05:40:45;5.77;;;4.90;;
12623;SDS011;6377;42.836;23.998;2023-06-10T05:43:12;5.97;;;5.20;;
12623;SDS011;6377;42.836;23.998;2023-06-10T05:45:41;5.70;;;5.10;;
12623;SDS011;6377;42.836;23.998;2023-06-10T05:48:09;5.80;;;4.57;;
12623;SDS011;6377;42.836;23.998;2023-06-10T05:50:36;5.70;;;4.60;;
12623;SDS011;6377;42.836;23.998;2023-06-10T05:53:05;6.47;;;4.73;;
12623;SDS011;6377;42.836;23.998;2023-06-10T05:55:41;6.15;;;5.13;;
12623;SDS011;6377;42.836;23.998;2023-06-10T05:58:09;8.67;;;5.60;;
12623;SDS011;6377;42.836;23.998;2023-06-10T06:00:37;5.88;;;4.88;;
12623;SDS011;6377;42.836;23.998;2023-06-10T06:03:05;6.07;;;5.22;;
12623;SDS011;6377;42.836;23.998;2023-06-10T06:05:33;6.25;;;4.75;;
12623;SDS011;6377;42.836;23.998;2023-06-10T06:08:02;5.07;;;4.57;;
12623;SDS011;6377;42.836;23.998;2023-06-10T06:10:30;6.70;;;4.82;;
12623;SDS011;6377;42.836;23.998;2023-06-10T06:12:59;6.65;;;5.70;;
12623;SDS011;6377;42.836;23.998;2023-06-10T06:15:27;5.57;;;4.97;;
12623;SDS011;6377;42.836;23.998;2023-06-10T06:17:54;10.40;;;8.23;;
12623;SDS011;6377;42.836;23.998;2023-06-10T06:20:22;9.73;;;6.93;;
12623;SDS011;6377;42.836;23.998;2023-06-10T06:22:49;8.07;;;6.33;;
12623;SDS011;6377;42.836;23.998;2023-06-10T06:25:17;7.77;;;6.43;;
12623;SDS011;6377;42.836;23.998;2023-06-10T06:27:44;7.13;;;5.80;;
12623;SDS011;6377;42.836;23.998;2023-06-10T06:30:13;7.90;;;5.93;;
12623;SDS011;6377;42.836;23.998;2023-06-10T06:32:41;7.15;;;5.85;;
12623;SDS011;6377;42.836;23.998;2023-06-10T06:35:08;7.35;;;5.68;;
12623;SDS011;6377;42.836;23.998;2023-06-10T06:37:35;6.33;;;5.20;;
12623;SDS011;6377;42.836;23.998;2023-06-10T06:40:03;7.28;;;5.70;;
12623;SDS011;6377;42.836;23.998;2023-06-10T06:42:31;7.23;;;5.23;;
12623;SDS011;6377;42.836;23.998;2023-06-10T06:44:58;8.23;;;5.20;;
12623;SDS011;6377;42.836;23.998;2023-06-10T06:47:27;6.25;;;4.75;;
12623;SDS011;6377;42.836;23.998;2023-06-10T06:49:55;8.50;;;6.07;;
12623;SDS011;6377;42.836;23.998;2023-06-10T06:52:22;5.53;;;5.00;;
12623;SDS011;6377;42.836;23.998;2023-06-10T06:54:49;6.43;;;5.57;;
12623;SDS011;6377;42.836;23.998;2023-06-10T06:57:17;10.48;;;6.18;;
12623;SDS011;6377;42.836;23.998;2023-06-10T06:59:44;7.80;;;6.10;;
12623;SDS011;6377;42.836;23.998;2023-06-10T07:02:11;8.20;;;6.03;;
12623;SDS011;6377;42.836;23.998;2023-06-10T07:04:40;7.60;;;6.78;;
12623;SDS011;6377;42.836;23.998;2023-06-10T07:07:07;9.02;;;6.47;;
12623;SDS011;6377;42.836;23.998;2023-06-10T07:09:35;7.43;;;6.20;;
12623;SDS011;6377;42.836;23.998;2023-06-10T07:12:02;7.95;;;6.13;;
12623;SDS011;6377;42.836;23.998;2023-06-10T07:14:30;10.60;;;6.10;;
12623;SDS011;6377;42.836;23.998;2023-06-10T07:16:58;7.68;;;6.43;;
12623;SDS011;6377;42.836;23.998;2023-06-10T07:19:25;7.93;;;6.55;;
12623;SDS011;6377;42.836;23.998;2023-06-10T07:21:54;9.05;;;6.47;;
12623;SDS011;6377;42.836;23.998;2023-06-10T07:24:21;7.85;;;6.25;;
12623;SDS011;6377;42.836;23.998;2023-06-10T07:26:48;7.07;;;5.72;;
12623;SDS011;6377;42.836;23.998;2023-06-10T07:29:15;7.75;;;6.25;;
12623;SDS011;6377;42.836;23.998;2023-06-10T07:31:42;9.43;;;6.72;;
12623;SDS011;6377;42.836;23.998;2023-06-10T07:34:10;8.18;;;6.40;;
12623;SDS011;6377;42.836;23.998;2023-06-10T07:36:37;9.00;;;6.35;;
12623;SDS011;6377;42.836;23.998;2023-06-10T07:39:06;6.18;;;5.55;;
12623;SDS011;6377;42.836;23.998;2023-06-10T07:41:33;8.00;;;6.13;;
12623;SDS011;6377;42.836;23.998;2023-06-10T07:44:01;5.65;;;5.13;;
12623;SDS011;6377;42.836;23.998;2023-06-10T07:46:28;10.45;;;5.88;;
12623;SDS011;6377;42.836;23.998;2023-06-10T07:48:55;7.18;;;5.78;;
12623;SDS011;6377;42.836;23.998;2023-06-10T07:51:23;4.75;;;3.95;;
12623;SDS011;6377;42.836;23.998;2023-06-10T07:53:50;5.80;;;3.90;;
12623;SDS011;6377;42.836;23.998;2023-06-10T07:56:19;4.80;;;3.65;;
12623;SDS011;6377;42.836;23.998;2023-06-10T07:58:46;4.18;;;3.78;;
12623;SDS011;6377;42.836;23.998;2023-06-10T08:01:14;3.72;;;3.22;;
12623;SDS011;6377;42.836;23.998;2023-06-10T08:03:41;5.57;;;3.92;;
12623;SDS011;6377;42.836;23.998;2023-06-10T08:06:09;5.90;;;3.50;;
12623;SDS011;6377;42.836;23.998;2023-06-10T08:08:37;4.97;;;3.30;;
12623;SDS011;6377;42.836;23.998;2023-06-10T08:11:08;8.07;;;3.65;;
12623;SDS011;6377;42.836;23.998;2023-06-10T08:13:37;5.25;;;3.60;;
12623;SDS011;6377;42.836;23.998;2023-06-10T08:16:05;4.78;;;3.42;;
12623;SDS011;6377;42.836;23.998;2023-06-10T08:18:32;4.57;;;3.63;;
12623;SDS011;6377;42.836;23.998;2023-06-10T08:21:00;4.60;;;3.42;;
12623;SDS011;6377;42.836;23.998;2023-06-10T08:23:27;5.22;;;3.50;;
12623;SDS011;6377;42.836;23.998;2023-06-10T08:25:55;4.80;;;3.53;;
12623;SDS011;6377;42.836;23.998;2023-06-10T08:28:23;4.18;;;3.08;;
12623;SDS011;6377;42.836;23.998;2023-06-10T08:30:51;3.58;;;3.28;;
12623;SDS011;6377;42.836;23.998;2023-06-10T08:33:19;3.58;;;2.85;;
12623;SDS011;6377;42.836;23.998;2023-06-10T08:35:46;4.55;;;3.00;;
12623;SDS011;6377;42.836;23.998;2023-06-10T08:38:13;3.90;;;3.08;;
12623;SDS011;6377;42.836;23.998;2023-06-10T08:40:41;4.63;;;3.20;;
12623;SDS011;6377;42.836;23.998;2023-06-10T08:43:10;4.63;;;3.35;;
12623;SDS011;6377;42.836;23.998;2023-06-10T08:45:43;3.22;;;2.88;;
12623;SDS011;6377;42.836;23.998;2023-06-10T08:48:17;4.72;;;3.10;;
12623;SDS011;6377;42.836;23.998;2023-06-10T08:50:46;3.83;;;2.92;;
12623;SDS011;6377;42.836;23.998;2023-06-10T08:53:17;5.35;;;3.20;;
12623;SDS011;6377;42.836;23.998;2023-06-10T08:55:46;5.32;;;3.17;;
12623;SDS011;6377;42.836;23.998;2023-06-10T08:58:18;3.80;;;3.08;;
12623;SDS011;6377;42.836;23.998;2023-06-10T09:00:46;4.05;;;3.17;;
12623;SDS011;6377;42.836;23.998;2023-06-10T09:03:14;4.25;;;3.15;;
12623;SDS011;6377;42.836;23.998;2023-06-10T09:05:43;4.18;;;3.20;;
12623;SDS011;6377;42.836;23.998;2023-06-10T09:08:11;5.15;;;3.35;;
12623;SDS011;6377;42.836;23.998;2023-06-10T09:10:38;3.80;;;3.47;;
12623;SDS011;6377;42.836;23.998;2023-06-10T09:13:06;3.90;;;3.28;;
12623;SDS011;6377;42.836;23.998;2023-06-10T09:15:34;3.70;;;3.30;;
12623;SDS011;6377;42.836;23.998;2023-06-10T09:18:01;3.72;;;3.40;;
12623;SDS011;6377;42.836;23.998;2023-06-10T09:20:30;6.93;;;3.50;;
12623;SDS011;6377;42.836;23.998;2023-06-10T09:22:58;4.95;;;3.67;;
12623;SDS011;6377;42.836;23.998;2023-06-10T09:25:34;4.15;;;3.30;;
12623;SDS011;6377;42.836;23.998;2023-06-10T09:28:03;4.03;;;3.63;;
12623;SDS011;6377;42.836;23.998;2023-06-10T09:30:31;3.80;;;3.08;;
12623;SDS011;6377;42.836;23.998;2023-06-10T09:33:00;5.25;;;3.03;;
12623;SDS011;6377;42.836;23.998;2023-06-10T09:35:37;3.70;;;3.22;;
12623;SDS011;6377;42.836;23.998;2023-06-10T09:38:13;4.97;;;3.40;;
12623;SDS011;6377;42.836;23.998;2023-06-10T09:40:48;3.50;;;3.20;;
12623;SDS011;6377;42.836;23.998;2023-06-10T09:43:17;4.72;;;3.22;;
12623;SDS011;6377;42.836;23.998;2023-06-10T09:45:47;3.95;;;3.25;;
12623;SDS011;6377;42.836;23.998;2023-06-10T09:48:15;3.97;;;3.38;;
12623;SDS011;6377;42.836;23.998;2023-06-10T09:50:42;4.03;;;3.50;;
12623;SDS011;6377;42.836;23.998;2023-06-10T09:53:10;3.92;;;3.28;;
12623;SDS011;6377;42.836;23.998;2023-06-10T09:55:39;4.10;;;3.50;;
12623;SDS011;6377;42.836;23.998;2023-06-10T09:58:07;6.07;;;3.95;;
12623;SDS011;6377;42.836;23.998;2023-06-10T10:00:35;5.85;;;4.30;;
12623;SDS011;6377;42.836;23.998;2023-06-10T10:03:03;4.00;;;3.25;;
12623;SDS011;6377;42.836;23.998;2023-06-10T10:05:31;4.20;;;3.28;;
12623;SDS011;6377;42.836;23.998;2023-06-10T10:07:59;4.13;;;3.72;;
12623;SDS011;6377;42.836;23.998;2023-06-10T10:10:26;4.88;;;3.22;;
12623;SDS011;6377;42.836;23.998;2023-06-10T10:12:55;5.30;;;4.07;;
12623;SDS011;6377;42.836;23.998;2023-06-10T10:15:23;9.20;;;6.05;;
12623;SDS011;6377;42.836;23.998;2023-06-10T10:17:53;4.75;;;4.07;;
12623;SDS011;6377;42.836;23.998;2023-06-10T10:20:27;5.95;;;3.63;;
12623;SDS011;6377;42.836;23.998;2023-06-10T10:22:58;3.95;;;3.55;;
12623;SDS011;6377;42.836;23.998;2023-06-10T10:25:29;5.25;;;3.13;;
12623;SDS011;6377;42.836;23.998;2023-06-10T10:28:04;3.95;;;2.88;;
12623;SDS011;6377;42.836;23.998;2023-06-10T10:30:37;3.38;;;3.08;;
12623;SDS011;6377;42.836;23.998;2023-06-10T10:33:08;3.45;;;3.13;;
12623;SDS011;6377;42.836;23.998;2023-06-10T10:35:39;3.75;;;3.20;;
12623;SDS011;6377;42.836;23.998;2023-06-10T10:38:06;5.32;;;3.40;;
12623;SDS011;6377;42.836;23.998;2023-06-10T10:40:35;5.43;;;3.13;;
12623;SDS011;6377;42.836;23.998;2023-06-10T10:43:05;4.50;;;3.20;;
12623;SDS011;6377;42.836;23.998;2023-06-10T10:45:33;3.22;;;2.92;;
12623;SDS011;6377;42.836;23.998;2023-06-10T10:48:04;3.95;;;3.10;;
12623;SDS011;6377;42.836;23.998;2023-06-10T10:50:36;5.03;;;3.60;;
12623;SDS011;6377;42.836;23.998;2023-06-10T10:53:04;3.95;;;3.03;;
12623;SDS011;6377;42.836;23.998;2023-06-10T10:55:32;5.18;;;3.10;;
12623;SDS011;6377;42.836;23.998;2023-06-10T10:58:02;5.72;;;3.38;;
12623;SDS011;6377;42.836;23.998;2023-06-10T11:00:33;4.07;;;3.67;;
12623;SDS011;6377;42.836;23.998;2023-06-10T11:03:05;5.97;;;3.58;;
12623;SDS011;6377;42.836;23.998;2023-06-10T11:05:38;4.28;;;3.50;;
12623;SDS011;6377;42.836;23.998;2023-06-10T11:08:07;4.82;;;3.40;;
12623;SDS011;6377;42.836;23.998;2023-06-10T11:10:35;5.57;;;3.20;;
12623;SDS011;6377;42.836;23.998;2023-06-10T11:13:06;5.60;;;3.45;;
12623;SDS011;6377;42.836;23.998;2023-06-10T11:15:39;5.47;;;3.15;;
12623;SDS011;6377;42.836;23.998;2023-06-10T11:18:13;5.78;;;3.40;;
12623;SDS011;6377;42.836;23.998;2023-06-10T11:20:56;4.85;;;3.65;;
12623;SDS011;6377;42.836;23.998;2023-06-10T11:23:32;3.42;;;2.97;;
12623;SDS011;6377;42.836;23.998;2023-06-10T11:26:19;4.72;;;3.30;;
12623;SDS011;6377;42.836;23.998;2023-06-10T11:29:01;4.30;;;3.00;;
12623;SDS011;6377;42.836;23.998;2023-06-10T11:31:32;3.13;;;2.83;;
12623;SDS011;6377;42.836;23.998;2023-06-10T11:34:01;3.95;;;2.95;;
12623;SDS011;6377;42.836;23.998;2023-06-10T11:36:30;7.13;;;3.30;;
12623;SDS011;6377;42.836;23.998;2023-06-10T11:38:58;4.63;;;3.40;;
12623;SDS011;6377;42.836;23.998;2023-06-10T11:41:27;5.53;;;3.28;;
12623;SDS011;6377;42.836;23.998;2023-06-10T11:44:00;4.65;;;3.15;;
12623;SDS011;6377;42.836;23.998;2023-06-10T11:46:36;4.22;;;3.40;;
12623;SDS011;6377;42.836;23.998;2023-06-10T11:49:07;3.72;;;3.42;;
12623;SDS011;6377;42.836;23.998;2023-06-10T11:51:35;8.40;;;3.40;;
12623;SDS011;6377;42.836;23.998;2023-06-10T11:54:05;4.28;;;3.30;;
12623;SDS011;6377;42.836;23.998;2023-06-10T11:56:35;3.42;;;3.10;;
12623;SDS011;6377;42.836;23.998;2023-06-10T11:59:02;3.17;;;2.88;;
12623;SDS011;6377;42.836;23.998;2023-06-10T12:01:33;3.50;;;3.20;;
12623;SDS011;6377;42.836;23.998;2023-06-10T12:04:02;3.40;;;3.05;;
12623;SDS011;6377;42.836;23.998;2023-06-10T12:06:43;4.20;;;3.55;;
12623;SDS011;6377;42.836;23.998;2023-06-10T12:09:18;3.90;;;2.95;;
12623;SDS011;6377;42.836;23.998;2023-06-10T12:11:48;3.97;;;2.90;;
12623;SDS011;6377;42.836;23.998;2023-06-10T12:17:34;4.18;;;3.17;;
12623;SDS011;6377;42.836;23.998;2023-06-10T12:20:03;3.20;;;2.90;;
12623;SDS011;6377;42.836;23.998;2023-06-10T12:22:36;5.03;;;3.20;;
12623;SDS011;6377;42.836;23.998;2023-06-10T12:25:04;5.90;;;3.30;;
12623;SDS011;6377;42.836;23.998;2023-06-10T12:27:32;5.13;;;3.15;;
12623;SDS011;6377;42.836;23.998;2023-06-10T12:30:02;3.58;;;2.92;;
12623;SDS011;6377;42.836;23.998;2023-06-10T12:32:39;3.50;;;3.20;;
12623;SDS011;6377;42.836;23.998;2023-06-10T12:35:07;3.40;;;3.03;;
12623;SDS011;6377;42.836;23.998;2023-06-10T12:37:36;3.45;;;2.72;;
12623;SDS011;6377;42.836;23.998;2023-06-10T12:40:04;5.75;;;3.10;;
12623;SDS011;6377;42.836;23.998;2023-06-10T12:42:33;4.70;;;3.30;;
12623;SDS011;6377;42.836;23.998;2023-06-10T12:45:02;3.35;;;2.92;;
12623;SDS011;6377;42.836;23.998;2023-06-10T12:47:32;3.47;;;3.00;;
12623;SDS011;6377;42.836;23.998;2023-06-10T12:50:03;5.18;;;3.20;;
12623;SDS011;6377;42.836;23.998;2023-06-10T12:52:31;3.55;;;3.20;;
12623;SDS011;6377;42.836;23.998;2023-06-10T12:54:58;3.95;;;3.25;;
12623;SDS011;6377;42.836;23.998;2023-06-10T12:57:26;3.90;;;3.10;;
12623;SDS011;6377;42.836;23.998;2023-06-10T12:59:53;3.55;;;2.92;;
12623;SDS011;6377;42.836;23.998;2023-06-10T13:02:25;5.55;;;3.25;;
12623;SDS011;6377;42.836;23.998;2023-06-10T13:04:52;4.43;;;3.00;;
12623;SDS011;6377;42.836;23.998;2023-06-10T13:07:21;4.80;;;2.88;;
12623;SDS011;6377;42.836;23.998;2023-06-10T13:09:49;3.83;;;3.05;;
12623;SDS011;6377;42.836;23.998;2023-06-10T13:12:17;3.35;;;2.88;;
12623;SDS011;6377;42.836;23.998;2023-06-10T13:14:44;4.22;;;3.00;;
12623;SDS011;6377;42.836;23.998;2023-06-10T13:17:11;3.55;;;3.00;;
12623;SDS011;6377;42.836;23.998;2023-06-10T13:19:38;3.78;;;3.25;;
12623;SDS011;6377;42.836;23.998;2023-06-10T13:22:05;4.60;;;2.90;;
12623;SDS011;6377;42.836;23.998;2023-06-10T13:24:34;3.30;;;3.00;;
12623;SDS011;6377;42.836;23.998;2023-06-10T13:27:02;5.03;;;3.05;;
12623;SDS011;6377;42.836;23.998;2023-06-10T13:29:29;3.85;;;3.35;;
12623;SDS011;6377;42.836;23.998;2023-06-10T13:31:56;4.78;;;3.08;;
12623;SDS011;6377;42.836;23.998;2023-06-10T13:34:24;3.28;;;2.92;;
12623;SDS011;6377;42.836;23.998;2023-06-10T13:36:51;3.72;;;3.05;;
12623;SDS011;6377;42.836;23.998;2023-06-10T13:39:18;3.38;;;2.85;;
12623;SDS011;6377;42.836;23.998;2023-06-10T13:41:47;5.25;;;3.33;;
12623;SDS011;6377;42.836;23.998;2023-06-10T13:44:14;3.67;;;2.78;;
12623;SDS011;6377;42.836;23.998;2023-06-10T13:46:41;3.30;;;3.00;;
12623;SDS011;6377;42.836;23.998;2023-06-10T13:49:08;5.88;;;2.90;;
12623;SDS011;6377;42.836;23.998;2023-06-10T13:51:35;3.63;;;3.13;;
12623;SDS011;6377;42.836;23.998;2023-06-10T13:54:02;3.30;;;2.75;;
12623;SDS011;6377;42.836;23.998;2023-06-10T13:56:30;3.67;;;2.72;;
12623;SDS011;6377;42.836;23.998;2023-06-10T13:59:00;3.15;;;2.85;;
12623;SDS011;6377;42.836;23.998;2023-06-10T14:01:27;4.70;;;2.97;;
12623;SDS011;6377;42.836;23.998;2023-06-10T14:03:55;6.55;;;2.85;;
12623;SDS011;6377;42.836;23.998;2023-06-10T14:06:22;4.28;;;2.85;;
12623;SDS011;6377;42.836;23.998;2023-06-10T14:08:49;3.50;;;3.08;;
12623;SDS011;6377;42.836;23.998;2023-06-10T14:11:16;4.55;;;3.28;;
12623;SDS011;6377;42.836;23.998;2023-06-10T14:13:43;4.35;;;2.90;;
12623;SDS011;6377;42.836;23.998;2023-06-10T14:16:12;3.63;;;3.20;;
12623;SDS011;6377;42.836;23.998;2023-06-10T14:18:39;7.53;;;6.93;;
12623;SDS011;6377;42.836;23.998;2023-06-10T14:21:07;4.30;;;3.53;;
12623;SDS011;6377;42.836;23.998;2023-06-10T14:23:34;4.97;;;2.90;;
12623;SDS011;6377;42.836;23.998;2023-06-10T14:26:01;3.58;;;2.88;;
12623;SDS011;6377;42.836;23.998;2023-06-10T14:28:30;3.88;;;3.13;;
12623;SDS011;6377;42.836;23.998;2023-06-10T14:30:57;3.40;;;3.10;;
12623;SDS011;6377;42.836;23.998;2023-06-10T14:33:26;4.20;;;3.15;;
12623;SDS011;6377;42.836;23.998;2023-06-10T14:35:53;3.28;;;2.97;;
12623;SDS011;6377;42.836;23.998;2023-06-10T14:38:21;3.60;;;3.00;;
12623;SDS011;6377;42.836;23.998;2023-06-10T14:40:48;4.63;;;3.30;;
12623;SDS011;6377;42.836;23.998;2023-06-10T14:43:16;4.05;;;3.50;;
12623;SDS011;6377;42.836;23.998;2023-06-10T14:45:43;4.78;;;2.83;;
12623;SDS011;6377;42.836;23.998;2023-06-10T14:48:11;4.78;;;3.10;;
12623;SDS011;6377;42.836;23.998;2023-06-10T14:50:40;4.47;;;2.97;;
12623;SDS011;6377;42.836;23.998;2023-06-10T14:53:10;3.47;;;3.08;;
12623;SDS011;6377;42.836;23.998;2023-06-10T14:55:37;3.47;;;2.83;;
12623;SDS011;6377;42.836;23.998;2023-06-10T14:58:04;3.65;;;3.10;;
12623;SDS011;6377;42.836;23.998;2023-06-10T15:00:32;4.50;;;3.33;;